Time,TemperatureF,DewpointF,PressureIn,WindDirection,WindDirectionDegrees,WindSpeedMPH,WindSpeedGustMPH,Humidity,HourlyPrecipIn,Conditions,Clouds,dailyrainin,SolarRadiationWatts/m^2,SoftwareType,DateUTC
2013-05-03 00:00:00,70.3,59.6,29.96,East,81,3.0,3.0,69,0.00,,,0.00,0,Wunderground v.1.15,2013-05-03 10:00:00,
2013-05-03 00:30:00,70.3,58.8,29.95,East,98,3.0,5.0,67,0.00,,,0.00,0,Wunderground v.1.15,2013-05-03 10:30:00,
2013-05-03 01:00:00,70.3,57.5,29.94,East,92,4.0,6.0,64,0.00,,,0.00,0,Wunderground v.1.15,2013-05-03 11:00:00,
2013-05-03 01:30:00,69.4,57.1,29.93,East,90,4.0,4.0,65,0.00,,,0.00,0,Wunderground v.1.15,2013-05-03 11:30:00,
2013-05-03 02:00:00,69.3,57.0,29.93,East,88,3.0,4.0,65,0.00,,,0.00,0,Wunderground v.1.15,2013-05-03 12:00:00,
2013-05-03 02:30:00,68.6,57.6,29.92,East,94,2.0,2.0,68,0.00,,,0.00,0,Wunderground v.1.15,2013-05-03 12:30:00,
2013-05-03 03:00:00,68.6,57.2,29.91,ENE,78,3.0,3.0,67,0.00,,,0.00,0,Wunderground v.1.15,2013-05-03 13:00:00,
2013-05-03 03:30:00,67.8,56.4,29.91,East,84,2.0,2.0,67,0.00,,,0.00,0,Wunderground v.1.15,2013-05-03 13:30:00,
2013-05-03 04:00:00,68.1,57.1,29.90,East,98,4.0,4.0,68,0.00,,,0.00,0,Wunderground v.1.15,2013-05-03 14:00:00,
2013-05-03 04:30:00,68.6,55.9,29.91,East,93,3.0,3.0,64,0.00,,,0.00,0,Wunderground v.1.15,2013-05-03 14:30:00,
2013-05-03 05:00:00,67.3,56.8,29.92,East,98,2.0,3.0,69,0.00,,,0.00,0,Wunderground v.1.15,2013-05-03 15:00:00,
2013-05-03 05:30:00,67.1,54.9,29.93,East,100,3.0,3.0,65,0.00,,,0.00,0,Wunderground v.1.15,2013-05-03 15:30:00,
2013-05-03 06:00:00,68.1,55.0,29.93,East,86,4.0,4.0,63,0.00,,,0.00,12,Wunderground v.1.15,2013-05-03 16:00:00,
2013-05-03 06:30:00,69.1,55.5,29.94,East,88,5.0,10.0,62,0.00,,,0.00,125,Wunderground v.1.15,2013-05-03 16:30:00,
2013-05-03 07:00:00,69.9,56.7,29.94,SE,133,5.0,5.0,63,0.00,,,0.00,207,Wunderground v.1.15,2013-05-03 17:00:00,
2013-05-03 07:30:00,71.8,58.1,29.95,ENE,71,7.0,7.0,62,0.00,,,0.00,295,Wunderground v.1.15,2013-05-03 17:30:00,
2013-05-03 08:00:00,73.2,58.5,29.96,ENE,60,6.0,10.0,60,0.00,,,0.00,408,Wunderground v.1.15,2013-05-03 18:00:00,
2013-05-03 08:30:00,76.1,58.2,29.95,NE,49,5.0,5.0,54,0.00,,,0.00,519,Wunderground v.1.15,2013-05-03 18:30:00,
2013-05-03 09:00:00,77.4,58.4,29.96,ENE,71,5.0,5.0,52,0.00,,,0.00,464,Wunderground v.1.15,2013-05-03 19:00:00,
2013-05-03 09:30:00,79.2,59.0,29.95,ESE,102,4.0,4.0,50,0.00,,,0.00,731,Wunderground v.1.15,2013-05-03 19:30:00,
2013-05-03 10:00:00,81.1,61.3,29.94,North,5,3.0,4.0,51,0.00,,,0.00,816,Wunderground v.1.15,2013-05-03 20:00:00,
2013-05-03 10:30:00,79.0,62.5,29.95,WNW,297,5.0,5.0,57,0.00,,,0.00,951,Wunderground v.1.15,2013-05-03 20:30:00,
2013-05-03 11:00:00,79.2,63.1,29.94,WNW,288,4.0,5.0,58,0.00,,,0.00,1067,Wunderground v.1.15,2013-05-03 21:00:00,
2013-05-03 11:30:00,79.0,65.3,29.93,NW,307,5.0,5.0,63,0.00,,,0.00,396,Wunderground v.1.15,2013-05-03 21:30:00,
2013-05-03 12:00:00,76.3,67.8,29.94,WNW,287,4.0,4.0,75,0.00,,,0.00,113,Wunderground v.1.15,2013-05-03 22:00:00,
2013-05-03 12:30:00,74.4,68.2,29.93,WNW,288,3.0,6.0,81,0.00,,,0.02,211,Wunderground v.1.15,2013-05-03 22:30:00,
2013-05-03 13:00:00,74.2,67.3,29.92,WNW,293,3.0,3.0,79,0.00,,,0.02,91,Wunderground v.1.15,2013-05-03 23:00:00,
2013-05-03 13:30:00,73.7,67.1,29.90,West,267,3.0,3.0,80,0.00,,,0.03,121,Wunderground v.1.15,2013-05-03 23:30:00,
2013-05-03 14:00:00,73.7,66.0,29.89,WSW,258,5.0,10.0,77,0.00,,,0.03,81,Wunderground v.1.15,2013-05-04 00:00:00,
2013-05-03 14:30:00,72.8,66.6,29.89,WSW,248,5.0,5.0,81,0.07,,,0.06,186,Wunderground v.1.15,2013-05-04 00:30:00,
2013-05-03 15:00:00,74.7,66.6,29.89,WSW,250,5.0,5.0,76,0.00,,,0.06,309,Wunderground v.1.15,2013-05-04 01:00:00,
2013-05-03 15:30:00,74.0,65.6,29.88,WSW,256,6.0,6.0,75,0.00,,,0.06,185,Wunderground v.1.15,2013-05-04 01:30:00,
2013-05-03 16:00:00,74.6,66.1,29.88,SW,235,5.0,5.0,75,0.00,,,0.06,181,Wunderground v.1.15,2013-05-04 02:00:00,
2013-05-03 16:30:00,74.7,65.9,29.89,West,260,5.0,5.0,74,0.00,,,0.06,172,Wunderground v.1.15,2013-05-04 02:30:00,
2013-05-03 17:00:00,74.9,65.3,29.89,West,261,3.0,3.0,72,0.00,,,0.06,156,Wunderground v.1.15,2013-05-04 03:00:00,
2013-05-03 17:30:00,73.5,62.7,29.90,West,261,0.0,0.0,69,0.00,,,0.06,14,Wunderground v.1.15,2013-05-04 03:30:00,
2013-05-03 18:00:00,72.3,63.2,29.90,West,260,1.0,1.0,73,0.00,,,0.06,14,Wunderground v.1.15,2013-05-04 04:00:00,
2013-05-03 18:30:00,71.8,63.4,29.90,West,259,1.0,2.0,75,0.00,,,0.06,5,Wunderground v.1.15,2013-05-04 04:30:00,
2013-05-03 19:00:00,72.0,62.9,29.91,SE,130,0.0,0.0,73,0.00,,,0.06,0,Wunderground v.1.15,2013-05-04 05:00:00,
2013-05-03 19:30:00,72.7,64.7,29.91,SSW,200,0.0,1.0,76,0.00,,,0.06,0,Wunderground v.1.15,2013-05-04 05:30:00,
2013-05-03 20:00:00,72.7,65.4,29.92,SW,217,1.0,1.0,78,0.00,,,0.06,0,Wunderground v.1.15,2013-05-04 06:00:00,
2013-05-03 20:30:00,72.0,65.5,29.92,SW,218,0.0,0.0,80,0.00,,,0.06,0,Wunderground v.1.15,2013-05-04 06:30:00,
2013-05-03 21:00:00,71.5,65.4,29.92,SW,217,0.0,0.0,81,0.00,,,0.07,0,Wunderground v.1.15,2013-05-04 07:00:00,
2013-05-03 21:30:00,71.1,65.7,29.93,SW,217,0.0,0.0,83,0.00,,,0.07,0,Wunderground v.1.15,2013-05-04 07:30:00,
2013-05-03 22:00:00,70.8,66.1,29.93,SW,217,0.0,0.0,85,0.00,,,0.07,0,Wunderground v.1.15,2013-05-04 08:00:00,
2013-05-03 22:30:00,70.6,65.9,29.93,SW,217,0.0,0.0,85,0.00,,,0.07,0,Wunderground v.1.15,2013-05-04 08:30:00,
2013-05-03 23:00:00,70.4,65.7,29.92,SW,217,0.0,0.0,85,0.00,,,0.07,0,Wunderground v.1.15,2013-05-04 09:00:00,
2013-05-03 23:30:00,70.4,65.7,29.92,SW,217,0.0,0.0,85,0.00,,,0.07,0,Wunderground v.1.15,2013-05-04 09:30:00,